sensor_id;sensor_type;location;lat;lon;timestamp;pressure;altitude;pressure_sealevel;temperature;humidity
69980;BME280;57318;56.232;43.944;2023-04-07T00:02:15;100108.31;;;1.53;47.48
69980;BME280;57318;56.232;43.944;2023-04-07T00:04:41;100109.13;;;1.55;47.58
69980;BME280;57318;56.232;43.944;2023-04-07T00:07:07;100109.13;;;1.55;47.35
69980;BME280;57318;56.232;43.944;2023-04-07T00:09:32;100105.66;;;1.55;47.42
69980;BME280;57318;56.232;43.944;2023-04-07T00:11:58;100110.97;;;1.52;47.19
69980;BME280;57318;56.232;43.944;2023-04-07T00:14:27;100119.69;;;1.52;47.43
69980;BME280;57318;56.232;43.944;2023-04-07T00:16:53;100109.31;;;1.49;47.63
69980;BME280;57318;56.232;43.944;2023-04-07T00:19:19;100111.97;;;1.48;47.63
69980;BME280;57318;56.232;43.944;2023-04-07T00:21:44;100111.09;;;1.49;47.68
69980;BME280;57318;56.232;43.944;2023-04-07T00:24:10;100106.75;;;1.48;47.49
69980;BME280;57318;56.232;43.944;2023-04-07T00:26:36;100118.94;;;1.49;47.49
69980;BME280;57318;56.232;43.944;2023-04-07T00:29:02;100123.38;;;1.47;47.66
69980;BME280;57318;56.232;43.944;2023-04-07T00:31:28;100115.44;;;1.50;47.87
69980;BME280;57318;56.232;43.944;2023-04-07T00:33:54;100120.75;;;1.47;47.78
69980;BME280;57318;56.232;43.944;2023-04-07T00:36:20;100120.75;;;1.47;47.58
69980;BME280;57318;56.232;43.944;2023-04-07T00:38:46;100123.28;;;1.50;47.68
69980;BME280;57318;56.232;43.944;2023-04-07T00:41:11;100120.66;;;1.50;47.92
69980;BME280;57318;56.232;43.944;2023-04-07T00:43:37;100127.69;;;1.48;47.90
69980;BME280;57318;56.232;43.944;2023-04-07T00:46:03;100133.13;;;1.41;47.93
69980;BME280;57318;56.232;43.944;2023-04-07T00:48:29;100127.94;;;1.40;47.75
69980;BME280;57318;56.232;43.944;2023-04-07T00:50:55;100129.69;;;1.39;48.15
69980;BME280;57318;56.232;43.944;2023-04-07T00:53:21;100140.16;;;1.39;47.46
69980;BME280;57318;56.232;43.944;2023-04-07T00:55:47;100132.50;;;1.33;47.86
69980;BME280;57318;56.232;43.944;2023-04-07T00:58:12;100135.31;;;1.27;48.22
69980;BME280;57318;56.232;43.944;2023-04-07T01:01:06;100128.38;;;1.26;48.13
69980;BME280;57318;56.232;43.944;2023-04-07T01:03:38;100135.50;;;1.21;48.18
69980;BME280;57318;56.232;43.944;2023-04-07T01:06:07;100140.88;;;1.16;48.23
69980;BME280;57318;56.232;43.944;2023-04-07T01:08:53;100139.22;;;1.14;48.50
69980;BME280;57318;56.232;43.944;2023-04-07T01:11:24;100137.50;;;1.13;47.95
69980;BME280;57318;56.232;43.944;2023-04-07T01:13:52;100137.63;;;1.08;48.39
69980;BME280;57318;56.232;43.944;2023-04-07T01:16:34;100145.53;;;1.06;48.55
69980;BME280;57318;56.232;43.944;2023-04-07T01:19:12;100137.69;;;1.06;48.57
69980;BME280;57318;56.232;43.944;2023-04-07T01:21:39;100143.84;;;1.05;48.21
69980;BME280;57318;56.232;43.944;2023-04-07T01:25:15;100147.38;;;1.03;48.37
69980;BME280;57318;56.232;43.944;2023-04-07T01:27:24;100148.41;;;0.97;48.63
69980;BME280;57318;56.232;43.944;2023-04-07T01:30:00;100145.06;;;0.92;48.63
69980;BME280;57318;56.232;43.944;2023-04-07T01:32:30;100148.69;;;0.88;48.70
69980;BME280;57318;56.232;43.944;2023-04-07T01:34:58;100150.47;;;0.86;49.00
69980;BME280;57318;56.232;43.944;2023-04-07T01:37:26;100145.34;;;0.83;49.02
69980;BME280;57318;56.232;43.944;2023-04-07T01:39:52;100148.91;;;0.80;48.59
69980;BME280;57318;56.232;43.944;2023-04-07T01:42:19;100155.94;;;0.78;49.16
69980;BME280;57318;56.232;43.944;2023-04-07T01:44:45;100149.84;;;0.78;49.05
69980;BME280;57318;56.232;43.944;2023-04-07T01:47:14;100153.34;;;0.77;49.08
69980;BME280;57318;56.232;43.944;2023-04-07T01:49:40;100156.94;;;0.74;49.25
69980;BME280;57318;56.232;43.944;2023-04-07T01:52:07;100157.25;;;0.63;49.20
69980;BME280;57318;56.232;43.944;2023-04-07T01:54:34;100158.03;;;0.65;49.37
69980;BME280;57318;56.232;43.944;2023-04-07T01:57:00;100156.34;;;0.63;49.52
69980;BME280;57318;56.232;43.944;2023-04-07T01:59:26;100166.94;;;0.58;49.77
69980;BME280;57318;56.232;43.944;2023-04-07T02:01:52;100161.81;;;0.55;49.67
69980;BME280;57318;56.232;43.944;2023-04-07T02:04:34;100162.72;;;0.54;49.60
69980;BME280;57318;56.232;43.944;2023-04-07T02:07:17;100166.25;;;0.51;49.77
69980;BME280;57318;56.232;43.944;2023-04-07T02:09:46;100169.91;;;0.46;49.88
69980;BME280;57318;56.232;43.944;2023-04-07T02:12:13;100166.53;;;0.41;50.13
69980;BME280;57318;56.232;43.944;2023-04-07T02:14:41;100163.25;;;0.34;50.49
69980;BME280;57318;56.232;43.944;2023-04-07T02:17:07;100164.16;;;0.31;50.54
69980;BME280;57318;56.232;43.944;2023-04-07T02:19:34;100177.25;;;0.31;50.42
69980;BME280;57318;56.232;43.944;2023-04-07T02:22:04;100178.16;;;0.30;50.52
69980;BME280;57318;56.232;43.944;2023-04-07T02:24:30;100180.84;;;0.27;50.85
69980;BME280;57318;56.232;43.944;2023-04-07T02:26:56;100187.97;;;0.22;50.86
69980;BME280;57318;56.232;43.944;2023-04-07T02:29:22;100184.44;;;0.23;50.95
69980;BME280;57318;56.232;43.944;2023-04-07T02:31:47;100187.06;;;0.22;50.90
69980;BME280;57318;56.232;43.944;2023-04-07T02:34:13;100194.16;;;0.18;50.91
69980;BME280;57318;56.232;43.944;2023-04-07T02:36:39;100195.06;;;0.15;51.33
69980;BME280;57318;56.232;43.944;2023-04-07T02:39:05;100197.75;;;0.12;50.94
69980;BME280;57318;56.232;43.944;2023-04-07T02:41:31;100200.38;;;0.12;51.00
69980;BME280;57318;56.232;43.944;2023-04-07T02:43:56;100200.41;;;0.11;51.34
69980;BME280;57318;56.232;43.944;2023-04-07T02:46:22;100205.69;;;0.09;51.02
69980;BME280;57318;56.232;43.944;2023-04-07T02:48:47;100203.97;;;0.08;51.50
69980;BME280;57318;56.232;43.944;2023-04-07T02:51:13;100198.84;;;0.05;51.37
69980;BME280;57318;56.232;43.944;2023-04-07T02:53:39;100212.78;;;0.04;51.31
69980;BME280;57318;56.232;43.944;2023-04-07T02:56:04;100211.06;;;0.03;51.27
69980;BME280;57318;56.232;43.944;2023-04-07T02:58:30;100215.31;;;0.07;51.26
69980;BME280;57318;56.232;43.944;2023-04-07T03:00:56;100207.53;;;0.06;51.36
69980;BME280;57318;56.232;43.944;2023-04-07T03:03:22;100206.72;;;0.04;51.27
69980;BME280;57318;56.232;43.944;2023-04-07T03:05:47;100212.75;;;0.06;51.36
69980;BME280;57318;56.232;43.944;2023-04-07T03:08:13;100218.78;;;0.08;51.06
69980;BME280;57318;56.232;43.944;2023-04-07T03:10:39;100215.16;;;0.13;51.13
69980;BME280;57318;56.232;43.944;2023-04-07T03:13:05;100229.00;;;0.17;51.10
69980;BME280;57318;56.232;43.944;2023-04-07T03:15:32;100221.06;;;0.22;50.47
69980;BME280;57318;56.232;43.944;2023-04-07T03:17:58;100223.63;;;0.23;50.53
69980;BME280;57318;56.232;43.944;2023-04-07T03:20:24;100219.28;;;0.24;50.10
69980;BME280;57318;56.232;43.944;2023-04-07T03:22:49;100224.47;;;0.25;50.58
69980;BME280;57318;56.232;43.944;2023-04-07T03:25:15;100219.22;;;0.27;50.24
69980;BME280;57318;56.232;43.944;2023-04-07T03:27:41;100231.47;;;0.23;50.52
69980;BME280;57318;56.232;43.944;2023-04-07T03:30:07;100231.50;;;0.22;50.29
69980;BME280;57318;56.232;43.944;2023-04-07T03:32:33;100232.22;;;0.28;50.40
69980;BME280;57318;56.232;43.944;2023-04-07T03:34:58;100231.31;;;0.29;50.02
69980;BME280;57318;56.232;43.944;2023-04-07T03:37:24;100228.63;;;0.32;50.27
69980;BME280;57318;56.232;43.944;2023-04-07T03:39:50;100237.44;;;0.28;49.98
69980;BME280;57318;56.232;43.944;2023-04-07T03:42:16;100242.63;;;0.30;50.38
69980;BME280;57318;56.232;43.944;2023-04-07T03:44:41;100233.59;;;0.43;50.24
69980;BME280;57318;56.232;43.944;2023-04-07T03:47:07;100244.72;;;0.51;49.88
69980;BME280;57318;56.232;43.944;2023-04-07T03:49:33;100240.16;;;0.58;49.88
69980;BME280;57318;56.232;43.944;2023-04-07T03:51:58;100237.28;;;0.69;49.47
69980;BME280;57318;56.232;43.944;2023-04-07T03:54:24;100244.97;;;0.75;48.94
69980;BME280;57318;56.232;43.944;2023-04-07T03:56:50;100242.25;;;0.78;48.78
69980;BME280;57318;56.232;43.944;2023-04-07T03:59:16;100246.44;;;0.85;48.83
69980;BME280;57318;56.232;43.944;2023-04-07T04:01:41;100240.34;;;0.85;48.77
69980;BME280;57318;56.232;43.944;2023-04-07T04:04:07;100252.16;;;1.00;48.97
69980;BME280;57318;56.232;43.944;2023-04-07T04:06:33;100252.53;;;1.17;49.13
69980;BME280;57318;56.232;43.944;2023-04-07T04:08:58;100259.19;;;1.29;49.50
69980;BME280;57318;56.232;43.944;2023-04-07T04:11:24;100257.84;;;1.46;47.78
69980;BME280;57318;56.232;43.944;2023-04-07T04:13:50;100263.84;;;1.49;47.81
69980;BME280;57318;56.232;43.944;2023-04-07T04:16:16;100262.84;;;1.53;46.88
69980;BME280;57318;56.232;43.944;2023-04-07T04:18:41;100267.16;;;1.56;47.11
69980;BME280;57318;56.232;43.944;2023-04-07T04:21:08;100271.25;;;1.65;46.90
69980;BME280;57318;56.232;43.944;2023-04-07T04:23:33;100267.50;;;1.73;46.77
69980;BME280;57318;56.232;43.944;2023-04-07T04:25:59;100269.66;;;1.89;46.64
69980;BME280;57318;56.232;43.944;2023-04-07T04:28:28;100280.47;;;2.06;45.95
69980;BME280;57318;56.232;43.944;2023-04-07T04:30:54;100280.38;;;2.09;45.48
69980;BME280;57318;56.232;43.944;2023-04-07T04:33:20;100284.53;;;2.15;45.32
69980;BME280;57318;56.232;43.944;2023-04-07T04:35:45;100285.09;;;2.25;46.08
69980;BME280;57318;56.232;43.944;2023-04-07T04:38:11;100282.19;;;2.34;45.41
69980;BME280;57318;56.232;43.944;2023-04-07T04:40:37;100292.03;;;2.27;44.57
69980;BME280;57318;56.232;43.944;2023-04-07T04:43:02;100297.06;;;2.33;44.77
69980;BME280;57318;56.232;43.944;2023-04-07T04:45:32;100295.25;;;2.35;45.15
69980;BME280;57318;56.232;43.944;2023-04-07T04:47:57;100293.59;;;2.60;45.24
69980;BME280;57318;56.232;43.944;2023-04-07T04:50:23;100304.50;;;2.74;44.42
69980;BME280;57318;56.232;43.944;2023-04-07T04:52:49;100300.97;;;2.75;43.86
69980;BME280;57318;56.232;43.944;2023-04-07T04:55:14;100298.44;;;2.72;44.21
69980;BME280;57318;56.232;43.944;2023-04-07T04:57:40;100306.81;;;2.83;43.81
69980;BME280;57318;56.232;43.944;2023-04-07T05:00:06;100307.06;;;3.01;43.77
69980;BME280;57318;56.232;43.944;2023-04-07T05:02:32;100303.97;;;3.15;42.73
69980;BME280;57318;56.232;43.944;2023-04-07T05:04:58;100313.06;;;3.30;43.19
69980;BME280;57318;56.232;43.944;2023-04-07T05:07:24;100317.06;;;3.40;42.00
69980;BME280;57318;56.232;43.944;2023-04-07T05:09:50;100314.34;;;3.43;42.71
69980;BME280;57318;56.232;43.944;2023-04-07T05:12:15;100317.16;;;3.62;42.57
69980;BME280;57318;56.232;43.944;2023-04-07T05:14:41;100315.59;;;3.80;42.00
69980;BME280;57318;56.232;43.944;2023-04-07T05:17:07;100320.25;;;3.95;41.17
69980;BME280;57318;56.232;43.944;2023-04-07T05:19:32;100319.66;;;4.11;41.04
69980;BME280;57318;56.232;43.944;2023-04-07T05:21:58;100313.88;;;4.25;40.83
69980;BME280;57318;56.232;43.944;2023-04-07T05:24:28;100314.75;;;4.46;40.14
69980;BME280;57318;56.232;43.944;2023-04-07T05:26:54;100316.13;;;4.56;38.67
69980;BME280;57318;56.232;43.944;2023-04-07T05:29:20;100317.88;;;4.56;38.91
69980;BME280;57318;56.232;43.944;2023-04-07T05:31:46;100325.03;;;4.52;38.77
69980;BME280;57318;56.232;43.944;2023-04-07T05:34:12;100317.22;;;4.50;38.95
69980;BME280;57318;56.232;43.944;2023-04-07T05:36:37;100329.63;;;4.69;39.42
69980;BME280;57318;56.232;43.944;2023-04-07T05:39:03;100334.31;;;4.83;38.36
69980;BME280;57318;56.232;43.944;2023-04-07T05:41:29;100327.00;;;4.90;38.07
69980;BME280;57318;56.232;43.944;2023-04-07T05:43:54;100333.06;;;4.92;38.52
69980;BME280;57318;56.232;43.944;2023-04-07T05:46:20;100330.34;;;4.93;37.68
69980;BME280;57318;56.232;43.944;2023-04-07T05:48:46;100335.22;;;5.02;38.25
69980;BME280;57318;56.232;43.944;2023-04-07T05:51:11;100337.34;;;5.15;37.76
69980;BME280;57318;56.232;43.944;2023-04-07T05:53:37;100340.44;;;5.24;37.01
69980;BME280;57318;56.232;43.944;2023-04-07T05:56:02;100336.94;;;5.24;36.77
69980;BME280;57318;56.232;43.944;2023-04-07T05:58:28;100341.88;;;5.32;36.74
69980;BME280;57318;56.232;43.944;2023-04-07T06:00:54;100337.06;;;5.41;36.20
69980;BME280;57318;56.232;43.944;2023-04-07T06:03:20;100342.19;;;5.45;35.63
69980;BME280;57318;56.232;43.944;2023-04-07T06:05:46;100342.59;;;5.35;36.15
69980;BME280;57318;56.232;43.944;2023-04-07T06:08:12;100345.09;;;5.38;36.00
69980;BME280;57318;56.232;43.944;2023-04-07T06:10:37;100343.78;;;5.49;35.89
69980;BME280;57318;56.232;43.944;2023-04-07T06:13:05;100346.09;;;5.75;35.66
69980;BME280;57318;56.232;43.944;2023-04-07T06:15:31;100345.13;;;7.07;33.41
69980;BME280;57318;56.232;43.944;2023-04-07T06:17:57;100357.31;;;9.03;30.04
69980;BME280;57318;56.232;43.944;2023-04-07T06:20:23;100348.41;;;11.29;27.35
69980;BME280;57318;56.232;43.944;2023-04-07T06:22:48;100356.53;;;13.48;24.54
69980;BME280;57318;56.232;43.944;2023-04-07T06:25:14;100356.16;;;15.50;22.74
69980;BME280;57318;56.232;43.944;2023-04-07T06:27:40;100361.56;;;17.68;20.26
69980;BME280;57318;56.232;43.944;2023-04-07T06:30:06;100371.59;;;18.87;17.86
69980;BME280;57318;56.232;43.944;2023-04-07T06:32:32;100355.81;;;19.54;16.80
69980;BME280;57318;56.232;43.944;2023-04-07T06:34:58;100357.91;;;18.98;16.28
69980;BME280;57318;56.232;43.944;2023-04-07T06:37:24;100357.28;;;18.86;16.37
69980;BME280;57318;56.232;43.944;2023-04-07T06:39:50;100365.78;;;19.88;16.55
69980;BME280;57318;56.232;43.944;2023-04-07T06:42:16;100369.00;;;21.26;15.43
69980;BME280;57318;56.232;43.944;2023-04-07T06:44:41;100366.13;;;22.80;14.63
69980;BME280;57318;56.232;43.944;2023-04-07T06:47:07;100368.66;;;23.95;13.38
69980;BME280;57318;56.232;43.944;2023-04-07T06:49:33;100372.91;;;25.08;12.60
69980;BME280;57318;56.232;43.944;2023-04-07T06:51:59;100375.53;;;25.79;11.51
69980;BME280;57318;56.232;43.944;2023-04-07T06:54:25;100383.13;;;25.55;11.30
69980;BME280;57318;56.232;43.944;2023-04-07T06:56:50;100378.41;;;25.36;11.54
69980;BME280;57318;56.232;43.944;2023-04-07T06:59:16;100384.78;;;26.13;11.02
69980;BME280;57318;56.232;43.944;2023-04-07T07:01:42;100378.03;;;26.51;10.26
69980;BME280;57318;56.232;43.944;2023-04-07T07:04:08;100373.56;;;25.94;10.28
69980;BME280;57318;56.232;43.944;2023-04-07T07:06:34;100377.44;;;26.14;10.53
69980;BME280;57318;56.232;43.944;2023-04-07T07:09:00;100390.16;;;26.48;10.02
69980;BME280;57318;56.232;43.944;2023-04-07T07:11:27;100386.41;;;26.49;9.83
69980;BME280;57318;56.232;43.944;2023-04-07T07:13:53;100390.06;;;26.70;9.97
69980;BME280;57318;56.232;43.944;2023-04-07T07:16:19;100375.19;;;26.92;9.49
69980;BME280;57318;56.232;43.944;2023-04-07T07:18:44;100380.13;;;26.55;9.25
69980;BME280;57318;56.232;43.944;2023-04-07T07:21:10;100380.47;;;27.07;9.23
69980;BME280;57318;56.232;43.944;2023-04-07T07:23:36;100384.25;;;27.26;9.07
69980;BME280;57318;56.232;43.944;2023-04-07T07:26:03;100379.09;;;28.17;8.67
69980;BME280;57318;56.232;43.944;2023-04-07T07:28:29;100382.66;;;28.76;8.30
69980;BME280;57318;56.232;43.944;2023-04-07T07:30:54;100380.94;;;28.82;7.87
69980;BME280;57318;56.232;43.944;2023-04-07T07:33:20;100378.41;;;27.56;8.42
69980;BME280;57318;56.232;43.944;2023-04-07T07:35:47;100373.34;;;26.38;9.18
69980;BME280;57318;56.232;43.944;2023-04-07T07:38:13;100371.22;;;26.88;9.10
69980;BME280;57318;56.232;43.944;2023-04-07T07:40:38;100373.66;;;28.17;8.15
69980;BME280;57318;56.232;43.944;2023-04-07T07:43:04;100367.84;;;28.52;7.88
69980;BME280;57318;56.232;43.944;2023-04-07T07:45:30;100378.75;;;29.47;7.66
69980;BME280;57318;56.232;43.944;2023-04-07T07:47:56;100385.09;;;29.92;7.26
69980;BME280;57318;56.232;43.944;2023-04-07T07:50:22;100383.06;;;30.54;7.05
69980;BME280;57318;56.232;43.944;2023-04-07T07:52:47;100384.47;;;30.75;6.72
69980;BME280;57318;56.232;43.944;2023-04-07T07:55:13;100375.19;;;30.76;6.59
69980;BME280;57318;56.232;43.944;2023-04-07T07:57:39;100390.50;;;31.50;6.61
69980;BME280;57318;56.232;43.944;2023-04-07T08:00:05;100375.38;;;31.71;6.19
69980;BME280;57318;56.232;43.944;2023-04-07T08:02:30;100374.50;;;31.71;6.62
69980;BME280;57318;56.232;43.944;2023-04-07T08:04:58;100376.75;;;31.50;6.56
69980;BME280;57318;56.232;43.944;2023-04-07T08:07:24;100376.38;;;32.06;6.06
69980;BME280;57318;56.232;43.944;2023-04-07T08:09:49;100383.69;;;32.12;6.24
69980;BME280;57318;56.232;43.944;2023-04-07T08:12:15;100379.38;;;32.16;5.61
69980;BME280;57318;56.232;43.944;2023-04-07T08:14:41;100369.06;;;30.74;6.18
69980;BME280;57318;56.232;43.944;2023-04-07T08:17:06;100383.25;;;30.41;6.54
69980;BME280;57318;56.232;43.944;2023-04-07T08:19:32;100382.47;;;30.83;6.30
69980;BME280;57318;56.232;43.944;2023-04-07T08:21:57;100372.91;;;31.16;5.99
69980;BME280;57318;56.232;43.944;2023-04-07T08:24:23;100389.38;;;31.04;6.16
69980;BME280;57318;56.232;43.944;2023-04-07T08:26:48;100379.34;;;30.67;5.96
69980;BME280;57318;56.232;43.944;2023-04-07T08:29:14;100377.56;;;31.15;6.00
69980;BME280;57318;56.232;43.944;2023-04-07T08:31:42;100377.03;;;31.84;5.58
69980;BME280;57318;56.232;43.944;2023-04-07T08:34:08;100382.13;;;31.92;5.62
69980;BME280;57318;56.232;43.944;2023-04-07T08:36:33;100377.91;;;32.54;5.51
69980;BME280;57318;56.232;43.944;2023-04-07T08:38:59;100385.66;;;32.28;5.17
69980;BME280;57318;56.232;43.944;2023-04-07T08:41:32;100378.81;;;31.90;5.46
69980;BME280;57318;56.232;43.944;2023-04-07T08:43:59;100381.88;;;32.06;5.30
69980;BME280;57318;56.232;43.944;2023-04-07T08:46:25;100375.00;;;32.32;5.31
69980;BME280;57318;56.232;43.944;2023-04-07T08:48:55;100379.44;;;32.33;5.07
69980;BME280;57318;56.232;43.944;2023-04-07T08:51:29;100374.53;;;32.35;5.06
69980;BME280;57318;56.232;43.944;2023-04-07T08:54:09;100378.44;;;32.80;4.77
69980;BME280;57318;56.232;43.944;2023-04-07T08:56:40;100383.16;;;32.67;5.06
69980;BME280;57318;56.232;43.944;2023-04-07T08:59:08;100372.59;;;30.14;5.33
69980;BME280;57318;56.232;43.944;2023-04-07T09:01:34;100374.19;;;29.09;6.37
69980;BME280;57318;56.232;43.944;2023-04-07T09:04:02;100372.09;;;28.79;6.13
69980;BME280;57318;56.232;43.944;2023-04-07T09:06:31;100373.22;;;29.04;6.25
69980;BME280;57318;56.232;43.944;2023-04-07T09:08:58;100369.50;;;29.92;5.81
69980;BME280;57318;56.232;43.944;2023-04-07T09:11:25;100373.16;;;31.26;5.55
69980;BME280;57318;56.232;43.944;2023-04-07T09:13:51;100367.47;;;31.63;5.20
69980;BME280;57318;56.232;43.944;2023-04-07T09:16:16;100372.84;;;31.70;5.05
69980;BME280;57318;56.232;43.944;2023-04-07T09:18:42;100369.59;;;31.49;4.79
69980;BME280;57318;56.232;43.944;2023-04-07T09:21:08;100362.94;;;31.80;4.87
69980;BME280;57318;56.232;43.944;2023-04-07T09:23:36;100367.59;;;32.61;4.73
69980;BME280;57318;56.232;43.944;2023-04-07T09:26:20;100361.84;;;32.91;4.37
69980;BME280;57318;56.232;43.944;2023-04-07T09:28:57;100372.38;;;33.12;4.58
69980;BME280;57318;56.232;43.944;2023-04-07T09:34:27;100365.03;;;31.31;4.61
69980;BME280;57318;56.232;43.944;2023-04-07T09:36:53;100363.00;;;32.09;4.68
69980;BME280;57318;56.232;43.944;2023-04-07T09:39:19;100360.75;;;32.47;4.48
69980;BME280;57318;56.232;43.944;2023-04-07T09:41:45;100367.75;;;32.83;4.17
69980;BME280;57318;56.232;43.944;2023-04-07T09:44:11;100369.22;;;33.20;4.18
69980;BME280;57318;56.232;43.944;2023-04-07T09:46:54;100373.38;;;33.05;3.62
69980;BME280;57318;56.232;43.944;2023-04-07T09:49:21;100369.09;;;32.98;4.06
69980;BME280;57318;56.232;43.944;2023-04-07T09:51:58;100365.25;;;32.82;4.12
69980;BME280;57318;56.232;43.944;2023-04-07T09:54:35;100365.19;;;32.77;3.98
69980;BME280;57318;56.232;43.944;2023-04-07T09:57:03;100369.69;;;33.17;3.86
69980;BME280;57318;56.232;43.944;2023-04-07T09:59:30;100373.47;;;33.61;3.95
69980;BME280;57318;56.232;43.944;2023-04-07T10:01:56;100373.22;;;33.80;3.81
69980;BME280;57318;56.232;43.944;2023-04-07T10:04:25;100354.75;;;32.50;3.74
69980;BME280;57318;56.232;43.944;2023-04-07T10:06:52;100356.34;;;31.22;4.38
69980;BME280;57318;56.232;43.944;2023-04-07T10:09:19;100353.03;;;30.90;4.41
69980;BME280;57318;56.232;43.944;2023-04-07T10:11:47;100351.09;;;31.56;4.65
69980;BME280;57318;56.232;43.944;2023-04-07T10:14:14;100357.31;;;32.68;4.25
69980;BME280;57318;56.232;43.944;2023-04-07T10:16:42;100353.59;;;32.63;3.86
69980;BME280;57318;56.232;43.944;2023-04-07T10:19:08;100355.69;;;32.84;4.09
69980;BME280;57318;56.232;43.944;2023-04-07T10:21:37;100352.88;;;32.38;4.27
69980;BME280;57318;56.232;43.944;2023-04-07T10:27:08;100367.00;;;32.71;4.15
69980;BME280;57318;56.232;43.944;2023-04-07T10:29:41;100359.13;;;32.34;4.30
69980;BME280;57318;56.232;43.944;2023-04-07T10:32:07;100360.09;;;33.02;4.25
69980;BME280;57318;56.232;43.944;2023-04-07T10:37:21;100361.41;;;32.66;4.64
69980;BME280;57318;56.232;43.944;2023-04-07T10:39:52;100351.22;;;31.73;4.88
69980;BME280;57318;56.232;43.944;2023-04-07T10:45:11;100359.63;;;29.66;5.88
69980;BME280;57318;56.232;43.944;2023-04-07T10:48:10;100348.06;;;29.13;6.24
69980;BME280;57318;56.232;43.944;2023-04-07T10:50:37;100353.59;;;29.82;6.18
69980;BME280;57318;56.232;43.944;2023-04-07T10:53:09;100349.63;;;29.97;5.67
69980;BME280;57318;56.232;43.944;2023-04-07T10:55:46;100351.41;;;30.40;5.92
69980;BME280;57318;56.232;43.944;2023-04-07T10:58:23;100347.75;;;30.46;5.85
69980;BME280;57318;56.232;43.944;2023-04-07T11:03:51;100357.88;;;29.72;6.64
69980;BME280;57318;56.232;43.944;2023-04-07T11:06:17;100353.00;;;30.29;6.65
69980;BME280;57318;56.232;43.944;2023-04-07T11:08:43;100353.59;;;30.50;6.59
69980;BME280;57318;56.232;43.944;2023-04-07T11:11:11;100345.75;;;30.53;6.63
69980;BME280;57318;56.232;43.944;2023-04-07T11:13:46;100354.78;;;29.86;6.76
69980;BME280;57318;56.232;43.944;2023-04-07T11:16:13;100355.50;;;29.57;7.19
69980;BME280;57318;56.232;43.944;2023-04-07T11:18:40;100353.50;;;29.89;7.17
69980;BME280;57318;56.232;43.944;2023-04-07T11:21:07;100346.53;;;29.49;7.47
69980;BME280;57318;56.232;43.944;2023-04-07T11:23:43;100346.38;;;28.87;7.71
69980;BME280;57318;56.232;43.944;2023-04-07T11:26:13;100334.41;;;27.91;8.17
69980;BME280;57318;56.232;43.944;2023-04-07T11:28:51;100336.59;;;27.69;8.25
69980;BME280;57318;56.232;43.944;2023-04-07T11:31:25;100338.88;;;28.37;7.88
69980;BME280;57318;56.232;43.944;2023-04-07T11:33:55;100335.72;;;28.34;8.28
69980;BME280;57318;56.232;43.944;2023-04-07T11:36:32;100335.00;;;28.13;8.57
69980;BME280;57318;56.232;43.944;2023-04-07T11:38:59;100328.69;;;28.13;8.18
69980;BME280;57318;56.232;43.944;2023-04-07T11:41:28;100329.56;;;27.93;8.18
69980;BME280;57318;56.232;43.944;2023-04-07T11:44:06;100326.97;;;27.53;8.51
69980;BME280;57318;56.232;43.944;2023-04-07T11:46:32;100328.44;;;27.15;8.75
69980;BME280;57318;56.232;43.944;2023-04-07T11:49:08;100324.56;;;26.50;9.31
69980;BME280;57318;56.232;43.944;2023-04-07T11:51:34;100330.22;;;26.48;9.33
69980;BME280;57318;56.232;43.944;2023-04-07T11:54:00;100324.44;;;26.85;9.25
69980;BME280;57318;56.232;43.944;2023-04-07T11:56:26;100338.50;;;27.35;9.06
69980;BME280;57318;56.232;43.944;2023-04-07T11:58:54;100324.84;;;27.55;9.03
69980;BME280;57318;56.232;43.944;2023-04-07T12:01:21;100330.44;;;28.00;8.49
69980;BME280;57318;56.232;43.944;2023-04-07T12:03:59;100326.78;;;28.13;8.74
69980;BME280;57318;56.232;43.944;2023-04-07T12:06:37;100325.16;;;28.05;8.54
69980;BME280;57318;56.232;43.944;2023-04-07T12:09:06;100336.66;;;28.59;8.37
69980;BME280;57318;56.232;43.944;2023-04-07T12:11:33;100318.97;;;28.94;8.38
69980;BME280;57318;56.232;43.944;2023-04-07T12:14:00;100328.75;;;27.99;8.69
69980;BME280;57318;56.232;43.944;2023-04-07T12:16:29;100328.47;;;27.35;8.95
69980;BME280;57318;56.232;43.944;2023-04-07T12:18:55;100321.28;;;26.88;8.97
69980;BME280;57318;56.232;43.944;2023-04-07T12:21:22;100322.56;;;26.98;9.05
69980;BME280;57318;56.232;43.944;2023-04-07T12:23:48;100314.19;;;26.18;9.25
69980;BME280;57318;56.232;43.944;2023-04-07T12:26:14;100318.19;;;25.46;10.09
69980;BME280;57318;56.232;43.944;2023-04-07T12:28:39;100324.38;;;25.33;10.41
69980;BME280;57318;56.232;43.944;2023-04-07T12:31:05;100315.59;;;25.66;10.14
69980;BME280;57318;56.232;43.944;2023-04-07T12:33:31;100297.94;;;25.97;10.04
69980;BME280;57318;56.232;43.944;2023-04-07T12:35:57;100312.94;;;25.44;10.23
69980;BME280;57318;56.232;43.944;2023-04-07T12:38:23;100313.41;;;25.54;10.22
69980;BME280;57318;56.232;43.944;2023-04-07T12:40:49;100298.50;;;25.79;10.00
69980;BME280;57318;56.232;43.944;2023-04-07T12:43:14;100315.44;;;25.17;10.44
69980;BME280;57318;56.232;43.944;2023-04-07T12:45:40;100317.66;;;25.07;10.45
69980;BME280;57318;56.232;43.944;2023-04-07T12:48:06;100311.38;;;25.28;10.31
69980;BME280;57318;56.232;43.944;2023-04-07T12:50:32;100310.44;;;25.43;10.35
69980;BME280;57318;56.232;43.944;2023-04-07T12:52:59;100310.47;;;25.49;10.46
69980;BME280;57318;56.232;43.944;2023-04-07T12:55:28;100316.03;;;25.34;10.30
69980;BME280;57318;56.232;43.944;2023-04-07T12:57:54;100310.38;;;25.36;10.64
69980;BME280;57318;56.232;43.944;2023-04-07T13:00:20;100306.13;;;25.05;10.79
69980;BME280;57318;56.232;43.944;2023-04-07T13:02:46;100307.59;;;24.79;10.69
69980;BME280;57318;56.232;43.944;2023-04-07T13:05:12;100315.72;;;25.01;10.83